Time;durP1;ratioP1;P1;durP2;ratioP2;P2;SDS_P1;SDS_P2;PMS_P1;PMS_P2;Temp;Humidity;BMP_temperature;BMP_pressure;BME280_temperature;BME280_humidity;BME280_pressure;Samples;Min_cycle;Max_cycle;Signal;HPM_P1;HPM_P2
2021/05/06 00:02:02;;;;;;;12.93;6.67;;;5.80;99.90;;;-143.32;98.62;55410.63;4861461;29;20458;-91
2021/05/06 00:30:16;;;;;;;10.20;7.60;;;5.60;1.00;;;-143.32;100.00;55358.06;4877945;29;20452;-90
2021/05/06 00:32:55;;;;;;;11.77;8.00;;;5.50;1.00;;;-143.32;100.00;55366.16;4880924;29;20460;-91
2021/05/06 00:35:36;;;;;;;13.50;8.40;;;5.60;95.80;;;-143.32;100.00;55358.06;4879867;29;20448;-90
2021/05/06 00:38:09;;;;;;;16.73;9.40;;;5.40;99.90;;;-143.32;100.00;55396.47;4880900;29;20460;-91
2021/05/06 00:40:48;;;;;;;19.20;9.77;;;5.30;1.00;;;-143.32;100.00;55374.25;4880863;29;20524;-91
2021/05/06 00:43:41;;;;;;;13.40;8.90;;;5.30;1.00;;;-143.32;100.00;55350.00;4880193;29;20437;-88
2021/05/06 00:55:06;;;;;;;19.60;11.20;;;5.10;99.90;;;-143.32;100.00;55406.56;4880265;29;20412;-91
2021/05/06 00:57:42;;;;;;;17.17;11.00;;;5.10;69.10;;;-143.32;100.00;55368.19;4880094;29;20453;-91
2021/05/06 01:00:24;;;;;;;19.73;10.63;;;5.00;71.90;;;-143.32;100.00;55362.13;4880728;29;20761;-92
2021/05/06 01:03:01;;;;;;;17.60;9.70;;;5.00;99.90;;;-143.32;100.00;55364.13;4881867;29;20449;-88
2021/05/06 01:05:31;;;;;;;19.73;10.80;;;5.10;99.90;;;-143.32;100.00;55341.91;4880233;29;20464;-88
2021/05/06 01:08:08;;;;;;;13.40;10.20;;;5.00;99.90;;;-143.32;100.00;55374.25;4880860;29;21011;-88
2021/05/06 01:10:54;;;;;;;15.10;10.67;;;5.10;99.90;;;-143.32;100.00;55394.44;4882179;29;20931;-89
2021/05/06 01:13:26;;;;;;;15.93;10.77;;;4.90;99.90;;;-143.32;100.00;55341.91;4880855;29;20786;-90
2021/05/06 01:15:53;;;;;;;15.17;11.03;;;5.00;99.90;;;-143.32;100.00;55364.13;4880298;29;20931;-92
2021/05/06 01:18:22;;;;;;;16.37;10.23;;;5.00;99.90;;;-143.32;100.00;55386.38;4881291;29;20505;-92
2021/05/06 01:20:56;;;;;;;16.63;9.40;;;5.00;99.90;;;-143.32;100.00;55354.03;4882306;29;20492;-92
2021/05/06 01:23:35;;;;;;;17.00;10.57;;;5.10;99.90;;;-143.32;100.00;55356.06;4882949;29;20464;-91
2021/05/06 01:26:31;;;;;;;16.50;10.37;;;5.00;99.90;;;-143.32;100.00;55364.13;4889312;29;20461;-91
2021/05/06 01:29:08;;;;;;;12.70;8.93;;;5.00;99.90;;;-143.32;100.00;55345.94;4890058;29;20524;-91
2021/05/06 01:31:39;;;;;;;11.10;8.67;;;5.00;99.90;;;-143.32;100.00;55364.13;4887605;29;20436;-92
2021/05/06 01:34:11;;;;;;;12.97;8.40;;;5.00;99.90;;;-143.32;100.00;55368.19;4884029;29;20453;-91
2021/05/06 01:36:54;;;;;;;13.10;8.90;;;5.10;99.90;;;-143.32;100.00;55366.16;4883823;29;20445;-92
2021/05/06 01:39:43;;;;;;;17.40;9.60;;;5.00;95.70;;;-143.32;100.00;55350.00;4883218;29;20517;-91
2021/05/06 01:42:18;;;;;;;19.53;10.23;;;5.10;99.90;;;-143.32;100.00;55327.75;4884315;29;20461;-91
2021/05/06 01:47:30;;;;;;;14.10;9.90;;;5.20;92.70;;;-143.32;100.00;55325.75;4882557;29;20917;-92
2021/05/06 02:03:59;;;;;;;17.80;13.13;;;5.20;99.90;;;-143.32;100.00;55281.28;4843381;29;20447;-89
2021/05/06 02:06:36;;;;;;;19.90;15.20;;;5.00;99.90;;;-143.32;100.00;55269.16;4855394;29;20881;-89
2021/05/06 02:15:58;;;;;;;25.73;16.20;;;5.00;99.90;;;-143.32;100.00;55287.34;4884297;29;20416;-92
2021/05/06 02:18:34;;;;;;;26.00;17.30;;;5.00;99.90;;;-143.32;100.00;55273.19;4885139;29;20944;-92
2021/05/06 02:21:10;;;;;;;29.23;17.97;;;5.10;99.90;;;-143.32;100.00;55287.34;4886929;29;20465;-92
2021/05/06 02:23:46;;;;;;;22.13;17.50;;;4.90;99.90;;;-143.32;100.00;55285.31;4886519;29;20443;-91
2021/05/06 02:26:16;;;;;;;26.90;17.70;;;4.90;99.90;;;-143.32;100.00;55240.88;4883458;29;20987;-91
2021/05/06 02:28:46;;;;;;;26.33;16.67;;;4.90;99.90;;;-143.32;100.00;55269.16;4882912;29;20493;-88
2021/05/06 02:31:17;;;;;;;22.87;15.73;;;4.90;99.90;;;-143.32;100.00;55269.16;4883233;29;20933;-89
2021/05/06 02:33:47;;;;;;;26.33;15.70;;;4.90;99.90;;;-143.32;100.00;55259.06;4882054;29;20441;-91
2021/05/06 02:36:14;;;;;;;20.90;16.00;;;4.80;99.90;;;-143.32;100.00;55257.03;4882716;29;20781;-90
2021/05/06 02:38:46;;;;;;;21.27;15.90;;;4.90;99.90;;;-143.32;100.00;55265.13;4883061;29;20453;-90
2021/05/06 02:42:15;;;;;;;;;;;;;;;;;;;;;
2021/05/06 02:52:11;;;;;;;28.17;15.80;;;4.80;99.90;;;-143.32;100.00;55228.75;4846293;29;20437;-92
2021/05/06 02:55:25;;;;;;;22.60;15.37;;;4.80;99.90;;;-143.32;100.00;55188.31;4888470;29;20437;-92
2021/05/06 04:41:43;;;;;;;22.13;14.70;;;5.50;99.90;;;-143.32;100.00;55030.72;4700579;30;20604;-91
2021/05/06 05:30:06;;;;;;;19.40;13.10;;;5.80;99.90;;;-143.32;100.00;55028.69;4911825;23;20507;-94
2021/05/06 05:32:40;;;;;;;21.40;14.40;;;5.70;99.90;;;-143.32;100.00;54998.38;4889475;29;20455;-90
2021/05/06 05:35:14;;;;;;;22.57;14.33;;;5.80;99.90;;;-143.32;100.00;55034.75;4889151;29;20489;-90
2021/05/06 05:37:44;;;;;;;23.50;14.00;;;5.80;99.90;;;-143.32;100.00;55026.66;4883765;29;20499;-91
2021/05/06 05:40:20;;;;;;;23.03;16.40;;;5.70;99.90;;;-143.32;100.00;55022.63;4883421;29;20460;-93
2021/05/06 05:43:00;;;;;;;26.37;15.60;;;5.80;99.90;;;-143.32;100.00;55018.59;4884592;29;20519;-92
2021/05/06 05:56:34;;;;;;;19.07;14.23;;;6.00;99.90;;;-143.32;100.00;55026.66;4883756;29;20424;-92
2021/05/06 05:59:01;;;;;;;21.33;14.77;;;6.10;99.90;;;-143.32;100.00;54992.31;4883109;29;20458;-89
2021/05/06 06:01:29;;;;;;;22.33;14.50;;;6.10;99.90;;;-143.32;100.00;55034.75;4882513;29;20460;-90
2021/05/06 06:03:56;;;;;;;18.73;14.10;;;6.10;99.90;;;-143.32;100.00;55046.88;4882692;29;20956;-91
2021/05/06 06:06:23;;;;;;;20.50;14.20;;;6.20;99.90;;;-143.32;100.00;55030.72;4882655;29;20529;-91
2021/05/06 06:09:16;;;;;;;24.53;16.07;;;6.30;99.90;;;-143.32;100.00;54998.38;4882125;29;20500;-90
2021/05/06 06:11:43;;;;;;;21.07;14.23;;;6.40;99.90;;;-143.32;100.00;55016.56;4883163;29;20460;-91
2021/05/06 06:14:10;;;;;;;22.77;15.30;;;6.50;99.90;;;-143.32;100.00;55008.47;4883009;29;20475;-90
2021/05/06 06:17:08;;;;;;;20.40;15.03;;;6.60;99.90;;;-143.32;100.00;55026.66;4882792;29;20461;-92
2021/05/06 06:19:36;;;;;;;22.10;14.40;;;6.70;99.90;;;-143.32;100.00;55044.84;4883723;29;20437;-92
2021/05/06 06:22:08;;;;;;;27.90;16.00;;;6.80;13.00;;;-143.32;100.00;55010.50;4883780;29;20504;-91
2021/05/06 06:24:35;;;;;;;19.93;14.33;;;6.70;1.00;;;-143.32;100.00;55054.94;4883486;29;20536;-92
2021/05/06 06:27:02;;;;;;;18.97;14.57;;;6.70;1.00;;;-143.32;100.00;55030.72;4883260;29;20518;-94
2021/05/06 06:29:30;;;;;;;19.00;15.00;;;6.80;1.00;;;-143.32;100.00;55063.03;4882986;29;20489;-91
2021/05/06 06:31:58;;;;;;;19.60;14.10;;;6.60;1.00;;;-143.32;100.00;55020.59;4883000;29;20601;-92
2021/05/06 06:34:25;;;;;;;18.20;14.47;;;6.60;1.00;;;-143.32;100.00;55050.91;4884543;29;20855;-91
2021/05/06 06:36:52;;;;;;;26.43;16.00;;;6.50;1.00;;;-143.32;100.00;55036.78;4882688;29;20457;-92
2021/05/06 06:39:19;;;;;;;21.13;15.17;;;6.50;1.00;;;-143.32;100.00;55065.06;4865074;29;20474;-93
2021/05/06 06:42:18;;;;;;;20.43;15.83;;;6.50;1.00;;;-143.32;100.00;55022.63;4866902;29;20462;-91
2021/05/06 06:44:45;;;;;;;19.50;15.20;;;6.60;24.70;;;-143.32;100.00;55030.72;4880085;29;20457;-92
2021/05/06 06:47:12;;;;;;;19.67;15.87;;;6.70;1.00;;;-143.32;100.00;55022.63;4883170;29;20460;-91
2021/05/06 06:49:41;;;;;;;23.97;16.70;;;6.80;1.00;;;-143.32;100.00;55008.47;4883341;29;20579;-91
2021/05/06 06:55:49;;;;;;;19.77;14.87;;;7.10;99.90;;;-143.32;100.00;55046.88;4883507;29;20412;-89
2021/05/06 06:58:17;;;;;;;19.30;13.30;;;7.50;99.90;;;-143.32;100.00;55034.75;4884771;29;20457;-91
2021/05/06 07:00:45;;;;;;;17.40;12.00;;;7.80;99.90;;;-143.32;99.76;55054.94;4882606;29;20456;-88
2021/05/06 07:03:12;;;;;;;18.10;13.37;;;8.00;1.00;;;-143.32;99.02;55103.44;4881360;29;20464;-86
2021/05/06 07:05:41;;;;;;;18.73;14.20;;;7.60;1.00;;;-143.32;100.00;55073.13;4880854;29;21016;-87
2021/05/06 07:08:15;;;;;;;29.03;14.83;;;7.50;1.00;;;-143.32;100.00;55052.94;4881479;29;20521;-88
2021/05/06 07:10:47;;;;;;;16.40;13.43;;;7.70;1.00;;;-143.32;99.36;55087.28;4881810;29;20445;-88
2021/05/06 07:13:16;;;;;;;17.57;13.07;;;7.80;1.00;;;-143.32;100.00;55016.56;4863569;29;20474;-89
2021/05/06 07:15:46;;;;;;;17.33;12.83;;;7.90;1.00;;;-143.32;97.99;55063.03;4880604;29;20473;-88
2021/05/06 07:18:20;;;;;;;20.23;12.63;;;8.20;1.00;;;-143.32;97.22;55050.91;4881653;29;20480;-87
2021/05/06 07:21:05;;;;;;;16.50;12.20;;;8.10;99.90;;;-143.32;97.49;55069.09;4880533;29;20437;-88
2021/05/06 07:23:34;;;;;;;19.87;12.10;;;8.10;99.90;;;-143.32;96.74;55105.47;4881512;29;20854;-87
2021/05/06 07:26:02;;;;;;;20.40;13.17;;;8.10;99.90;;;-143.32;97.45;55067.06;4881546;29;20528;-88
2021/05/06 07:28:34;;;;;;;16.20;13.07;;;7.90;99.90;;;-143.32;97.84;55071.13;4880950;29;20535;-87
2021/05/06 07:31:02;;;;;;;16.40;12.53;;;8.00;1.00;;;-143.32;97.12;55081.22;4880837;29;20449;-87
2021/05/06 07:33:29;;;;;;;16.77;11.30;;;8.30;1.00;;;-143.32;94.64;55075.16;4880872;29;20456;-86
2021/05/06 07:35:56;;;;;;;17.43;11.27;;;8.60;1.00;;;-143.32;93.20;55071.13;4880910;29;20524;-87
2021/05/06 07:38:24;;;;;;;25.57;11.10;;;8.80;99.90;;;-143.32;91.69;55115.56;4881302;29;20449;-88
2021/05/06 07:40:52;;;;;;;18.30;11.10;;;9.00;1.00;;;-143.32;91.96;55099.41;4899607;29;20460;-89
2021/05/06 07:43:26;;;;;;;13.53;9.80;;;9.00;1.00;;;-143.32;90.53;55087.28;5132298;27;20509;-89
2021/05/06 07:45:54;;;;;;;13.40;10.17;;;9.00;1.00;;;-143.32;90.54;55111.53;5111416;28;20442;-88
2021/05/06 07:48:20;;;;;;;14.33;9.37;;;8.90;1.00;;;-143.32;89.85;55145.88;5111427;28;20445;-88
2021/05/06 07:50:49;;;;;;;14.50;9.67;;;8.80;99.90;;;-143.32;91.01;55123.66;5114732;28;20498;-88
2021/05/06 07:53:22;;;;;;;14.23;9.90;;;8.70;1.00;;;-143.32;91.07;55113.56;5107416;28;20474;-88
2021/05/06 07:56:00;;;;;;;13.20;10.30;;;8.80;1.00;;;-143.32;90.78;55087.28;5102448;28;20484;-88
2021/05/06 07:58:28;;;;;;;16.40;9.00;;;8.90;1.00;;;-143.32;90.68;55077.19;5102153;28;20467;-89
2021/05/06 08:00:54;;;;;;;22.13;9.03;;;9.10;1.00;;;-143.32;88.55;55111.53;5109167;28;20477;-88
2021/05/06 08:03:21;;;;;;;14.83;8.43;;;9.20;99.90;;;-143.32;88.12;55115.56;5094348;28;20991;-89
2021/05/06 08:05:49;;;;;;;14.23;9.17;;;9.20;99.90;;;-143.32;89.90;55101.44;5090876;28;20454;-89
2021/05/06 08:08:16;;;;;;;19.03;9.63;;;9.30;1.00;;;-143.32;88.34;55121.63;5091079;28;20446;-87
2021/05/06 08:10:43;;;;;;;12.83;8.90;;;9.20;99.90;;;-143.32;88.13;55109.50;5093142;28;20878;-90
2021/05/06 08:13:10;;;;;;;13.73;8.77;;;9.10;99.90;;;-143.32;89.11;55123.66;5108955;28;20437;-93
2021/05/06 08:15:37;;;;;;;10.63;8.90;;;9.30;99.90;;;-143.32;87.46;55170.13;5114744;28;20448;-91
2021/05/06 08:18:05;;;;;;;17.90;9.30;;;9.00;99.90;;;-143.32;89.23;55156.00;5114569;28;20498;-93
2021/05/06 08:20:31;;;;;;;16.37;9.03;;;9.00;1.00;;;-143.32;89.11;55194.38;5113145;28;20449;-93
2021/05/06 08:22:59;;;;;;;16.80;9.40;;;8.90;1.00;;;-143.32;89.91;55158.00;5111720;28;20520;-93
2021/05/06 08:25:26;;;;;;;16.07;9.43;;;8.90;1.00;;;-143.32;89.26;55135.78;5118853;28;20429;-92
2021/05/06 08:27:53;;;;;;;10.13;9.00;;;9.00;1.00;;;-143.32;87.67;55131.75;5113759;28;20846;-95
2021/05/06 08:30:28;;;;;;;15.27;10.47;;;9.30;1.00;;;-143.32;86.55;55091.31;5114405;28;20434;-93
2021/05/06 08:32:56;;;;;;;13.97;10.00;;;9.90;99.90;;;-143.32;84.85;55119.63;5120207;28;20459;-91
2021/05/06 08:35:26;;;;;;;12.03;9.40;;;10.40;99.90;;;-143.32;82.28;55073.13;5100823;28;20441;-91
2021/05/06 08:37:53;;;;;;;11.30;8.80;;;11.00;97.90;;;-143.32;80.90;55075.16;5124674;28;20445;-92
2021/05/06 08:40:49;;;;;;;11.57;8.30;;;11.30;1.00;;;-143.32;79.10;55089.31;5121976;28;20434;-92
2021/05/06 08:43:18;;;;;;;12.27;8.53;;;11.40;1.00;;;-143.32;79.44;55135.78;5120000;28;20481;-91
2021/05/06 08:45:49;;;;;;;11.70;8.57;;;11.20;1.00;;;-143.32;79.87;55129.72;5120892;28;20433;-92
2021/05/06 08:48:35;;;;;;;14.93;8.70;;;10.80;1.00;;;-143.32;80.57;55119.63;5122087;28;20429;-92
2021/05/06 08:51:24;;;;;;;11.37;8.27;;;10.70;1.00;;;-143.32;81.36;55127.69;5121300;28;20443;-91
2021/05/06 08:53:51;;;;;;;12.93;8.57;;;10.70;1.00;;;-143.32;79.80;55139.81;5114164;28;20461;-93
2021/05/06 09:02:52;;;;;;;10.07;8.33;;;11.00;1.00;;;-143.32;78.59;55141.84;5105264;28;20465;-91
2021/05/06 09:05:22;;;;;;;11.23;8.90;;;11.00;1.00;;;-143.32;78.29;55176.19;5108038;28;20439;-88
2021/05/06 09:07:49;;;;;;;11.30;7.90;;;10.90;1.00;;;-143.32;77.53;55188.31;5116745;28;20475;-88
2021/05/06 09:10:36;;;;;;;10.43;8.13;;;10.90;1.00;;;-143.32;77.35;55143.88;5106873;28;20449;-87
2021/05/06 09:13:05;;;;;;;11.77;9.10;;;11.00;1.00;;;-143.32;76.98;55172.16;5095966;28;20462;-87
2021/05/06 09:15:32;;;;;;;15.57;9.03;;;10.90;1.00;;;-143.32;76.77;55121.63;5095973;28;21025;-89
2021/05/06 09:17:58;;;;;;;13.90;9.17;;;11.20;1.00;;;-143.32;74.88;55137.81;5096340;28;20814;-87
2021/05/06 09:20:27;;;;;;;9.73;8.20;;;11.50;1.00;;;-143.32;76.21;55123.66;5096248;28;20452;-88
2021/05/06 09:22:57;;;;;;;13.63;10.97;;;11.40;1.00;;;-143.32;76.87;55164.06;5096014;28;20482;-90
2021/05/06 09:25:26;;;;;;;15.17;10.30;;;11.00;1.00;;;-143.32;78.98;55149.94;5096051;28;20957;-90
2021/05/06 09:28:16;;;;;;;17.60;11.47;;;11.00;1.00;;;-143.32;76.57;55168.13;5095288;28;20477;-87
2021/05/06 09:30:52;;;;;;;14.13;10.57;;;11.00;1.00;;;-143.32;77.30;55170.13;5095723;28;20510;-89
2021/05/06 09:33:31;;;;;;;15.47;11.30;;;11.10;1.00;;;-143.32;77.36;55149.94;5097350;28;20494;-89
2021/05/06 09:36:12;;;;;;;15.40;10.77;;;11.30;1.00;;;-143.32;74.51;55117.59;5095933;28;20422;-90
2021/05/06 09:38:45;;;;;;;17.83;12.00;;;11.50;1.00;;;-143.32;73.61;55109.50;5097052;28;20430;-89
2021/05/06 09:41:14;;;;;;;13.47;10.33;;;11.70;1.00;;;-143.32;73.56;55158.00;5095458;28;20450;-91
2021/05/06 09:43:47;;;;;;;13.90;11.20;;;11.80;1.00;;;-143.32;72.63;55137.81;5096224;28;20485;-92
2021/05/06 09:46:29;;;;;;;14.70;10.60;;;11.80;1.00;;;-143.32;70.58;55184.28;5097509;28;20485;-90
2021/05/06 09:49:02;;;;;;;12.17;9.60;;;11.90;1.00;;;-143.32;70.28;55180.25;5096338;28;20434;-89
2021/05/06 09:51:33;;;;;;;17.20;10.87;;;11.90;99.90;;;-143.32;69.79;55162.06;5095771;28;20495;-89
2021/05/06 09:54:00;;;;;;;14.67;11.70;;;12.10;99.90;;;-143.32;71.92;55164.06;5096579;28;20426;-89
2021/05/06 09:56:28;;;;;;;18.53;11.13;;;12.10;1.00;;;-143.32;72.11;55093.34;5095593;28;20453;-91
2021/05/06 09:58:58;;;;;;;18.87;11.47;;;12.20;1.00;;;-143.32;71.53;55113.56;5096016;28;20936;-88
2021/05/06 10:01:37;;;;;;;16.27;11.97;;;12.50;1.00;;;-143.32;67.67;55117.59;5075406;28;20491;-88
2021/05/06 10:04:34;;;;;;;15.80;11.93;;;12.70;99.90;;;-143.32;71.38;55133.75;5075240;28;20423;-89
2021/05/06 10:07:14;;;;;;;13.30;10.50;;;12.50;99.90;;;-143.32;68.63;55216.63;5075984;28;20419;-92
2021/05/06 10:09:55;;;;;;;16.93;12.83;;;12.00;99.90;;;-143.32;71.82;55196.41;5081910;28;20452;-91
2021/05/06 10:16:33;;;;;;;15.80;12.70;;;11.80;1.00;;;-143.32;69.85;55176.19;5112034;28;20405;-93
2021/05/06 10:19:08;;;;;;;16.27;12.40;;;11.90;99.90;;;-143.32;69.95;55176.19;5130243;28;20434;-91
2021/05/06 10:43:35;;;;;;;15.33;11.03;;;11.20;99.90;;;-143.32;72.09;55275.22;5459083;23;20486;-91
2021/05/06 11:08:27;;;;;;;21.07;13.90;;;11.70;1.00;;;-143.32;67.29;55168.13;5603885;23;20827;-92
2021/05/06 11:11:18;;;;;;;9.90;8.53;;;12.10;99.90;;;-143.32;64.98;55196.41;4931119;29;20473;-90
2021/05/06 11:17:41;;;;;;;11.73;8.10;;;12.00;99.90;;;-143.32;65.64;55192.38;4934745;29;20546;-93
2021/05/06 11:20:52;;;;;;;11.60;7.70;;;12.20;99.90;;;-143.32;64.18;55174.19;4937825;29;20499;-91
2021/05/06 11:27:48;;;;;;;7.57;4.60;;;12.20;99.90;;;-143.32;54.52;55255.00;5034259;28;20516;-93
2021/05/06 11:41:46;;;;;;;7.23;5.23;;;12.40;99.90;;;-143.32;54.56;55297.44;4977284;28;20431;-90
2021/05/06 12:10:52;;;;;;;7.23;5.70;;;12.60;99.90;;;-143.32;56.15;55238.84;4983730;28;20951;-92
2021/05/06 12:13:28;;;;;;;14.00;7.80;;;12.70;99.90;;;-143.32;53.01;55265.13;5057042;28;20452;-90
2021/05/06 12:16:20;;;;;;;9.10;5.70;;;12.90;99.90;;;-143.32;54.06;55281.28;5054395;28;20522;-90
2021/05/06 12:19:06;;;;;;;10.40;6.60;;;13.00;99.90;;;-143.32;54.01;55275.22;5055408;28;20451;-92
2021/05/06 12:32:40;;;;;;;9.57;4.87;;;13.30;99.90;;;-143.32;48.46;55307.56;5058369;28;20452;-91
2021/05/06 12:35:33;;;;;;;6.57;4.70;;;13.20;99.90;;;-143.32;48.22;55339.88;5057822;28;20475;-91
2021/05/06 12:38:04;;;;;;;7.00;4.80;;;13.10;99.90;;;-143.32;47.99;55354.03;5054973;28;20454;-91
2021/05/06 12:41:13;;;;;;;9.93;5.00;;;13.10;99.90;;;-143.32;49.02;55313.63;5057452;28;20801;-91
2021/05/06 12:44:12;;;;;;;9.23;5.23;;;13.00;99.90;;;-143.32;48.99;55325.75;5058740;28;20962;-92
2021/05/06 12:46:53;;;;;;;12.00;4.83;;;13.20;99.90;;;-143.32;49.07;55317.66;5065559;28;20448;-91
2021/05/06 12:49:44;;;;;;;6.93;4.77;;;13.40;99.90;;;-143.32;45.63;55345.94;5073420;28;20444;-91
2021/05/06 12:52:37;;;;;;;9.47;4.40;;;13.40;99.90;;;-143.32;41.57;55394.44;5069848;28;20436;-92
2021/05/06 13:06:05;;;;;;;7.07;3.77;;;12.90;99.90;;;-143.32;42.93;55428.81;5074488;28;20470;-91
2021/05/06 13:08:44;;;;;;;4.60;2.90;;;13.00;99.90;;;-143.32;41.80;55447.00;5072582;28;20435;-92
2021/05/06 13:15:10;;;;;;;7.40;3.00;;;12.90;99.90;;;-143.32;41.50;55489.44;5056930;28;20527;-92
2021/05/06 13:17:38;;;;;;;4.93;2.90;;;12.70;99.90;;;-143.32;40.87;55465.19;5070864;28;20444;-90
2021/05/06 13:20:55;;;;;;;9.23;3.97;;;12.90;99.90;;;-143.32;41.67;55440.94;5072138;28;20448;-89
2021/05/06 13:27:28;;;;;;;4.10;3.30;;;13.40;99.90;;;-143.32;39.43;55422.75;5032281;28;20421;-92
2021/05/06 13:30:11;;;;;;;5.70;3.40;;;13.70;99.90;;;-143.32;38.66;55465.19;5033379;28;20469;-92
2021/05/06 14:01:40;;;;;;;14.33;4.03;;;12.90;99.90;;;-143.32;42.88;55485.41;5400653;22;20567;-88
2021/05/06 14:04:36;;;;;;;10.27;4.30;;;13.00;99.90;;;-143.32;40.64;55501.56;5062323;28;20460;-91
2021/05/06 14:44:11;;;;;;;10.50;3.47;;;13.70;99.90;;;-143.32;38.60;55513.69;4905721;28;20484;-91
2021/05/06 14:58:52;;;;;;;7.17;3.73;;;13.20;99.90;;;-143.32;37.43;55519.75;4977451;28;20416;-93
2021/05/06 15:16:19;;;;;;;9.97;3.60;;;13.00;99.90;;;-143.32;39.15;55552.09;5056613;28;20423;-95
2021/05/06 15:51:54;;;;;;;8.00;4.47;;;12.80;99.90;;;-143.32;37.84;55580.38;5042116;28;20469;-91
2021/05/06 15:58:53;;;;;;;6.97;3.40;;;13.00;99.90;;;-143.32;38.27;55572.28;4966244;29;20943;-91
2021/05/06 16:05:22;;;;;;;3.27;2.97;;;12.80;99.90;;;-143.32;36.72;55594.53;4983057;28;20451;-91
2021/05/06 16:08:21;;;;;;;5.50;3.40;;;12.80;99.90;;;-143.32;38.66;55586.44;4986912;28;20546;-93
2021/05/06 16:31:57;;;;;;;10.30;4.67;;;11.10;99.90;;;-143.32;49.03;55558.16;5001433;28;20480;-92
2021/05/06 16:34:28;;;;;;;4.93;3.57;;;11.20;99.90;;;-143.32;50.01;55572.28;5036901;28;20479;-91
2021/05/06 16:37:26;;;;;;;;;;;;;;;;;;;;;
2021/05/06 16:44:35;;;;;;;7.20;3.50;;;11.10;99.90;;;-143.32;50.71;55562.19;4951835;29;20507;-91
2021/05/06 17:21:01;;;;;;;7.33;3.30;;;10.70;99.90;;;-143.32;60.01;55517.72;4944307;29;20453;-92
2021/05/06 17:24:29;;;;;;;;;;;;;;;;;;;;;
2021/05/06 17:38:18;;;;;;;6.73;3.90;;;10.30;99.90;;;-143.32;61.50;55495.50;4953766;29;21014;-91
2021/05/06 17:52:52;;;;;;;6.90;4.40;;;10.70;99.90;;;-143.32;62.83;55475.28;4912354;29;20454;-92
2021/05/06 20:40:39;;;;;;;23.73;14.30;;;7.70;1.00;;;-143.32;99.88;55172.16;4954071;29;20453;-92
2021/05/06 20:43:11;;;;;;;20.70;15.00;;;7.80;99.90;;;-143.32;100.00;55184.28;4959664;28;20492;-92
2021/05/06 20:46:13;;;;;;;;;;;;;;;;;;;;;
2021/05/06 20:48:41;;;;;;;20.00;15.87;;;7.80;25.90;;;-143.32;100.00;55127.69;5019071;28;20532;-92
2021/05/06 20:51:08;;;;;;;24.20;14.83;;;7.70;99.90;;;-143.32;100.00;55158.00;5034851;28;20438;-90
2021/05/06 20:53:38;;;;;;;24.27;18.27;;;7.60;99.90;;;-143.32;100.00;55123.66;5086652;28;20440;-92
2021/05/06 20:56:40;;;;;;;23.70;17.30;;;7.60;99.90;;;-143.32;100.00;55123.66;5119581;28;20780;-91
2021/05/06 20:59:20;;;;;;;;;;;;;;;;;;;;;
2021/05/06 21:01:47;;;;;;;29.77;19.70;;;7.30;99.90;;;-143.32;100.00;55091.31;5127773;28;20505;-91
2021/05/06 21:04:16;;;;;;;26.20;18.47;;;7.30;99.90;;;-143.32;100.00;55071.13;5119224;28;20530;-93
2021/05/06 21:06:46;;;;;;;26.93;19.60;;;7.30;99.90;;;-143.32;100.00;55050.91;5117485;28;20926;-90
2021/05/06 21:09:29;;;;;;;28.90;19.07;;;7.10;99.90;;;-143.32;100.00;55038.78;5119571;28;20517;-92
2021/05/06 21:24:01;;;;;;;24.40;19.53;;;6.40;99.90;;;-143.32;100.00;55006.47;5055707;28;21031;-92
2021/05/06 21:27:13;;;;;;;32.40;22.20;;;6.10;99.90;;;-143.32;100.00;54955.94;5112278;28;20593;-93
2021/05/06 21:30:21;;;;;;;31.50;21.50;;;5.90;99.90;;;-143.32;100.00;54945.84;5103255;28;20802;-93
2021/05/06 21:33:21;;;;;;;28.70;21.10;;;5.90;99.90;;;-143.32;100.00;54917.56;5117005;28;20441;-92
2021/05/06 21:35:54;;;;;;;26.77;19.20;;;5.70;99.90;;;-143.32;100.00;54893.31;5117712;28;20855;-92
2021/05/06 21:50:17;;;;;;;24.10;16.10;;;5.10;99.90;;;-143.32;100.00;54725.59;5074381;28;20438;-95
2021/05/06 22:00:58;;;;;;;21.97;15.47;;;4.90;99.90;;;-143.32;100.00;54281.13;4941953;28;20478;-94
2021/05/06 23:26:35;;;;;;;40.90;22.90;;;4.30;99.90;;;-143.32;100.00;50569.94;4838372;29;20534;-93
2021/05/06 23:33:44;;;;;;;44.53;24.43;;;4.30;99.90;;;-143.32;100.00;50150.22;4879905;29;20528;-95
2021/05/06 23:40:09;;;;;;;44.60;25.27;;;4.40;99.90;;;-143.32;100.00;49900.00;4978676;28;20427;-92
2021/05/06 23:43:32;;;;;;;41.03;24.70;;;4.50;99.90;;;-143.32;100.00;49801.16;4989057;28;21018;-91
